Capt. Tracy L. Cheramie — WDG2169 — position and weather

sailwx.info

Track history (hours):
 
Tides and Currents Weather Stations Pressure Air Temp Water Temp Dewpoint Dewpoint Depression Visibility Wind Speed Wind Dir Waves Ship Positions

Capt. Tracy L. Cheramie

Owner: Florida Marine, LLC, Mandeville, LA. More information available from US FCC via Universal Licensing System and Coast Guard Vessel Documentation Center.

Last reported at 2018-Jun-15 03:08 UTC. Time now 2018-Jun-19 18:23 UTC.
Position N 30°23' W 087°00'.

Length 27 m; draft 3 m.

Type: Other ship. MMSI: 367512870.

Date/timePositionNaut miles runAvg speedWind from/ knotsBaromVisibWave heightAir tempDewpointWater temp
2018-Jun-15 03:08N 30°23' W 087°00'1 8.8
2018-Jun-15 03:00N 30°23' W 086°59'4 8.5
2018-Jun-15 02:31N 30°24' W 086°54'4 8.4
2018-Jun-15 02:00N 30°24' W 086°49'4 8.3
2018-Jun-15 01:31N 30°24' W 086°44'4 8.1
2018-Jun-15 00:59N 30°24' W 086°39'4 8.1
2018-Jun-15 00:29N 30°24' W 086°35'4 8.2
2018-Jun-15 00:00N 30°26' W 086°30'4 8.4
2018-Jun-14 23:30N 30°26' W 086°26'4 8.4
2018-Jun-14 22:59N 30°26' W 086°20'3 0.1
2018-Jun-14 00:47N 30°27' W 086°17'2 7.8
2018-Jun-14 00:29N 30°26' W 086°20'4 7.7
2018-Jun-14 00:00N 30°26' W 086°24'4 7.8
2018-Jun-13 23:30N 30°26' W 086°29'8 7.1
2018-Jun-13 22:23N 30°24' W 086°38'2 6.3
2018-Jun-13 22:01N 30°24' W 086°41'3 5.2
2018-Jun-13 21:31N 30°24' W 086°44'3 5.9
2018-Jun-13 21:00N 30°24' W 086°47'3 7.0
2018-Jun-13 20:31N 30°24' W 086°51'3 6.8
2018-Jun-13 20:00N 30°23' W 086°55'  
2018-Jun-10 04:46N 30°23' W 086°57'2 7.7
2018-Jun-10 04:30N 30°23' W 086°55'4 7.6
2018-Jun-10 04:01N 30°24' W 086°51'4 7.6
2018-Jun-10 03:31N 30°24' W 086°46'4 7.3
2018-Jun-10 03:01N 30°24' W 086°42'8 7.4
2018-Jun-10 01:55N 30°25' W 086°33'3 8.1
2018-Jun-10 01:30N 30°26' W 086°29'4 7.7
2018-Jun-10 00:59N 30°26' W 086°25'4 7.6
2018-Jun-10 00:30N 30°26' W 086°20'  
2018-Jun-07 03:03N 30°27' W 086°16'1 8.2
2018-Jun-07 02:54N 30°27' W 086°18'3 8.2
2018-Jun-07 02:30N 30°26' W 086°21'1 2.0
2018-Jun-07 02:00N 30°26' W 086°22'3 6.7
2018-Jun-07 01:30N 30°27' W 086°19'  
Track history (hours):
 
Tides and Currents Weather Stations Pressure Air Temp Water Temp Dewpoint Dewpoint Depression Visibility Wind Speed Wind Dir Waves Ship Positions

Capt. Tracy L. Cheramie

Owner: Florida Marine, LLC, Mandeville, LA. More information available from US FCC via Universal Licensing System and Coast Guard Vessel Documentation Center.

Last reported at 2018-Jun-15 03:08 UTC. Time now 2018-Jun-19 18:23 UTC.
Position N 30°23' W 087°00'.

Length 27 m; draft 3 m.

Type: Other ship. MMSI: 367512870.

Date/timePositionNaut miles runAvg speedWind from/ knotsBaromVisibWave heightAir tempDewpointWater temp
2018-Jun-15 03:08N 30°23' W 087°00'1 8.8
2018-Jun-15 03:00N 30°23' W 086°59'4 8.5
2018-Jun-15 02:31N 30°24' W 086°54'4 8.4
2018-Jun-15 02:00N 30°24' W 086°49'4 8.3
2018-Jun-15 01:31N 30°24' W 086°44'4 8.1
2018-Jun-15 00:59N 30°24' W 086°39'4 8.1
2018-Jun-15 00:29N 30°24' W 086°35'4 8.2
2018-Jun-15 00:00N 30°26' W 086°30'4 8.4
2018-Jun-14 23:30N 30°26' W 086°26'4 8.4
2018-Jun-14 22:59N 30°26' W 086°20'3 0.1
2018-Jun-14 00:47N 30°27' W 086°17'2 7.8
2018-Jun-14 00:29N 30°26' W 086°20'4 7.7
2018-Jun-14 00:00N 30°26' W 086°24'4 7.8
2018-Jun-13 23:30N 30°26' W 086°29'8 7.1
2018-Jun-13 22:23N 30°24' W 086°38'2 6.3
2018-Jun-13 22:01N 30°24' W 086°41'3 5.2
2018-Jun-13 21:31N 30°24' W 086°44'3 5.9
2018-Jun-13 21:00N 30°24' W 086°47'3 7.0
2018-Jun-13 20:31N 30°24' W 086°51'3 6.8
2018-Jun-13 20:00N 30°23' W 086°55'  
2018-Jun-10 04:46N 30°23' W 086°57'2 7.7
2018-Jun-10 04:30N 30°23' W 086°55'4 7.6
2018-Jun-10 04:01N 30°24' W 086°51'4 7.6
2018-Jun-10 03:31N 30°24' W 086°46'4 7.3
2018-Jun-10 03:01N 30°24' W 086°42'8 7.4
2018-Jun-10 01:55N 30°25' W 086°33'3 8.1
2018-Jun-10 01:30N 30°26' W 086°29'4 7.7
2018-Jun-10 00:59N 30°26' W 086°25'4 7.6
2018-Jun-10 00:30N 30°26' W 086°20'  
2018-Jun-07 03:03N 30°27' W 086°16'1 8.2
2018-Jun-07 02:54N 30°27' W 086°18'3 8.2
2018-Jun-07 02:30N 30°26' W 086°21'1 2.0
2018-Jun-07 02:00N 30°26' W 086°22'3 6.7
2018-Jun-07 01:30N 30°27' W 086°19'  

Dump ship's entire track history